Time;durP1;ratioP1;P1;durP2;ratioP2;P2;SDS_P1;SDS_P2;PMS_P1;PMS_P2;Temp;Humidity;BMP_temperature;BMP_pressure;BME280_temperature;BME280_humidity;BME280_pressure;Samples;Min_cycle;Max_cycle;Signal;HPM_P1;HPM_P2
2021/01/06 00:01:43;;;;;;;40.73;14.73;;;0.80;99.90;;;;;;4402882;28;657426;-67
2021/01/06 00:04:30;;;;;;;63.25;22.55;;;0.80;99.90;;;;;;4389015;28;657617;-67
2021/01/06 00:07:17;;;;;;;61.80;22.80;;;0.80;99.90;;;;;;4415643;28;657915;-68
2021/01/06 00:10:05;;;;;;;46.53;17.57;;;0.70;99.90;;;;;;4384314;28;657605;-66
2021/01/06 00:12:51;;;;;;;64.73;22.07;;;0.70;99.90;;;;;;4405404;28;658275;-68
2021/01/06 00:15:40;;;;;;;53.47;22.52;;;0.70;99.90;;;;;;4392389;28;657502;-66
2021/01/06 00:18:27;;;;;;;60.13;20.47;;;0.50;99.90;;;;;;4412318;28;657383;-69
2021/01/06 00:21:14;;;;;;;44.10;17.90;;;0.50;99.90;;;;;;4396263;28;657486;-67
2021/01/06 00:24:01;;;;;;;35.27;12.73;;;0.70;99.90;;;;;;4418369;28;658427;-68
2021/01/06 00:26:49;;;;;;;53.70;21.70;;;0.70;99.90;;;;;;4391178;28;657464;-65
2021/01/06 00:29:36;;;;;;;58.05;21.98;;;0.60;99.90;;;;;;4413055;28;657178;-68
2021/01/06 00:32:24;;;;;;;57.00;21.43;;;0.50;99.90;;;;;;4414767;28;657557;-68
2021/01/06 00:35:11;;;;;;;55.00;20.60;;;0.40;99.90;;;;;;4397002;28;658559;-68
2021/01/06 00:37:58;;;;;;;57.40;22.67;;;0.60;99.90;;;;;;4399085;28;658252;-68
2021/01/06 00:40:45;;;;;;;58.00;21.97;;;0.70;99.90;;;;;;4396235;28;657989;-68
2021/01/06 00:43:32;;;;;;;58.60;22.10;;;0.60;99.90;;;;;;4407830;28;657726;-68
2021/01/06 00:46:20;;;;;;;28.00;11.20;;;0.50;99.90;;;;;;4396218;28;657412;-68
2021/01/06 00:49:08;;;;;;;49.37;21.57;;;0.60;99.90;;;;;;4408385;28;658732;-68
2021/01/06 00:51:55;;;;;;;56.92;22.88;;;0.60;99.90;;;;;;4396471;28;657614;-68
2021/01/06 00:54:41;;;;;;;57.33;20.53;;;0.50;99.90;;;;;;4409014;28;658199;-68
2021/01/06 00:57:29;;;;;;;57.03;23.33;;;0.40;99.90;;;;;;4398577;28;657597;-66
2021/01/06 01:00:17;;;;;;;56.63;21.67;;;0.30;99.90;;;;;;4409482;28;658585;-68
2021/01/06 01:03:04;;;;;;;58.37;23.00;;;0.30;99.90;;;;;;4395673;28;657471;-67
2021/01/06 01:05:53;;;;;;;66.43;24.40;;;0.30;99.90;;;;;;4413259;28;658970;-68
2021/01/06 01:08:40;;;;;;;67.53;25.33;;;0.30;99.90;;;;;;4390178;28;657501;-68
2021/01/06 01:11:27;;;;;;;60.80;23.20;;;0.30;99.90;;;;;;4406034;28;658759;-68
2021/01/06 01:14:14;;;;;;;64.00;24.77;;;0.20;99.90;;;;;;4386912;28;657430;-67
2021/01/06 01:17:03;;;;;;;64.13;25.00;;;0.20;99.90;;;;;;4414187;28;659578;-68
2021/01/06 01:19:50;;;;;;;66.73;23.57;;;0.20;99.90;;;;;;4395622;28;657539;-67
2021/01/06 01:22:38;;;;;;;67.32;24.23;;;0.40;99.90;;;;;;4407716;28;658172;-68
2021/01/06 01:25:26;;;;;;;66.80;23.98;;;0.40;99.90;;;;;;4395767;28;657617;-68
2021/01/06 01:28:14;;;;;;;57.03;23.57;;;0.60;99.90;;;;;;4407060;28;657649;-66
2021/01/06 01:31:01;;;;;;;61.50;23.90;;;0.60;99.90;;;;;;4418429;28;658851;-68
2021/01/06 01:33:49;;;;;;;66.23;24.30;;;0.50;99.90;;;;;;4406967;28;658055;-65
2021/01/06 01:36:36;;;;;;;60.97;22.73;;;0.30;99.90;;;;;;4408488;28;658773;-66
2021/01/06 01:39:24;;;;;;;58.27;22.13;;;0.30;99.90;;;;;;4409335;28;658095;-68
2021/01/06 01:42:11;;;;;;;66.27;26.83;;;0.60;99.90;;;;;;4395580;28;658452;-68
2021/01/06 01:44:58;;;;;;;52.57;20.07;;;0.50;99.90;;;;;;4408971;28;657748;-68
2021/01/06 01:47:48;;;;;;;63.13;24.27;;;0.60;99.90;;;;;;4387791;28;658284;-68
2021/01/06 01:50:35;;;;;;;58.30;23.10;;;0.60;99.90;;;;;;4387188;28;659027;-68
2021/01/06 01:53:31;;;;;;;67.70;25.30;;;0.60;99.90;;;;;;4405225;28;657602;-68
2021/01/06 01:56:21;;;;;;;69.77;25.53;;;0.60;99.90;;;;;;4371768;28;657167;-66
2021/01/06 01:59:09;;;;;;;68.07;27.00;;;0.50;99.90;;;;;;4417612;28;657855;-66
2021/01/06 02:01:58;;;;;;;67.80;26.43;;;0.40;99.90;;;;;;4390466;28;658097;-68
2021/01/06 02:04:49;;;;;;;65.53;27.57;;;0.30;99.90;;;;;;4394706;28;659327;-68
2021/01/06 02:07:38;;;;;;;63.90;25.90;;;0.20;99.90;;;;;;4399176;28;657603;-68
2021/01/06 02:10:29;;;;;;;66.27;25.57;;;0.20;99.90;;;;;;4389734;28;658813;-68
2021/01/06 02:13:22;;;;;;;66.70;26.67;;;0.10;99.90;;;;;;4394692;28;658942;-68
2021/01/06 02:16:11;;;;;;;64.20;27.00;;;0.10;99.90;;;;;;4366585;28;658402;-66
2021/01/06 02:18:57;;;;;;;71.03;25.83;;;0.00;99.90;;;;;;4415963;28;658375;-66
2021/01/06 02:21:45;;;;;;;67.53;26.47;;;0.00;99.90;;;;;;4386015;28;657536;-68
2021/01/06 02:24:32;;;;;;;70.50;27.63;;;0.00;99.90;;;;;;4409863;28;657468;-68
2021/01/06 02:27:20;;;;;;;66.20;25.77;;;-0.10;99.90;;;;;;4398881;28;658334;-68
2021/01/06 02:30:08;;;;;;;72.33;27.73;;;-0.10;99.90;;;;;;4416540;28;660676;-68
2021/01/06 02:32:55;;;;;;;72.33;29.17;;;-0.10;99.90;;;;;;4396561;28;659184;-68
2021/01/06 02:35:42;;;;;;;71.33;28.13;;;-0.10;99.90;;;;;;4410761;28;658854;-68
2021/01/06 02:38:30;;;;;;;73.90;30.17;;;-0.10;99.90;;;;;;4389518;28;659301;-67
2021/01/06 02:41:17;;;;;;;72.80;27.93;;;-0.10;99.90;;;;;;4415956;28;659469;-68
2021/01/06 02:44:05;;;;;;;72.07;29.80;;;-0.10;99.90;;;;;;4397030;28;659152;-67
2021/01/06 02:46:52;;;;;;;83.53;36.00;;;0.00;99.90;;;;;;4415998;28;659820;-68
2021/01/06 02:49:39;;;;;;;79.17;33.30;;;0.10;99.90;;;;;;4392428;28;658063;-68
2021/01/06 02:52:32;;;;;;;72.37;29.37;;;0.00;99.90;;;;;;4417161;28;658724;-68
2021/01/06 02:55:21;;;;;;;71.93;27.23;;;0.00;99.90;;;;;;4363220;28;658617;-67
2021/01/06 02:58:09;;;;;;;73.30;29.40;;;-0.10;99.90;;;;;;4400245;28;657896;-68
2021/01/06 03:00:56;;;;;;;83.67;31.03;;;-0.10;99.90;;;;;;4376174;28;659481;-68
2021/01/06 03:03:44;;;;;;;85.85;32.92;;;-0.10;99.90;;;;;;4379740;28;658749;-65
2021/01/06 03:06:32;;;;;;;78.27;31.60;;;-0.10;99.90;;;;;;4395699;28;658644;-68
2021/01/06 03:09:29;;;;;;;83.97;31.77;;;0.00;99.90;;;;;;4380014;28;658556;-68
2021/01/06 03:12:18;;;;;;;71.93;29.07;;;0.00;99.90;;;;;;4375727;28;657675;-68
2021/01/06 03:15:06;;;;;;;108.10;38.23;;;0.00;99.90;;;;;;4373315;28;657432;-68
2021/01/06 03:17:53;;;;;;;99.93;37.57;;;0.20;99.90;;;;;;4389530;28;659568;-68
2021/01/06 03:20:42;;;;;;;79.20;30.77;;;0.30;99.90;;;;;;4381010;28;657273;-68
2021/01/06 03:23:30;;;;;;;75.47;30.73;;;0.30;99.90;;;;;;4380987;28;657826;-66
2021/01/06 03:26:19;;;;;;;100.53;38.70;;;0.20;99.90;;;;;;4399349;28;657341;-68
2021/01/06 03:29:07;;;;;;;95.43;35.17;;;0.20;99.90;;;;;;4375736;28;660034;-67
2021/01/06 03:31:54;;;;;;;87.50;32.57;;;0.20;99.90;;;;;;4372410;28;658359;-67
2021/01/06 03:34:44;;;;;;;100.70;35.67;;;0.20;99.90;;;;;;4398057;28;658412;-68
2021/01/06 03:37:34;;;;;;;95.17;34.97;;;0.10;99.90;;;;;;4371666;28;660319;-68
2021/01/06 03:40:24;;;;;;;100.87;36.47;;;0.10;99.90;;;;;;4366270;28;659127;-67
2021/01/06 03:43:11;;;;;;;102.40;38.77;;;0.10;99.90;;;;;;4370916;28;659730;-68
2021/01/06 03:46:02;;;;;;;110.60;37.90;;;0.10;99.90;;;;;;4382707;28;658999;-66
2021/01/06 03:49:00;;;;;;;109.73;39.03;;;0.10;99.90;;;;;;4379242;28;658671;-67
2021/01/06 03:51:52;;;;;;;106.37;38.60;;;0.10;99.90;;;;;;4368230;28;658946;-68
2021/01/06 03:54:41;;;;;;;96.00;36.57;;;0.10;99.90;;;;;;4356674;28;658778;-67
2021/01/06 03:57:28;;;;;;;92.70;35.00;;;0.10;99.90;;;;;;4396002;28;657893;-68
2021/01/06 04:00:28;;;;;;;96.13;37.05;;;0.10;99.90;;;;;;4396667;28;657602;-68
2021/01/06 04:03:29;;;;;;;94.32;35.28;;;0.10;99.90;;;;;;4370111;28;658724;-68
2021/01/06 04:06:16;;;;;;;95.67;35.87;;;0.10;99.90;;;;;;4366144;28;658272;-68
2021/01/06 04:09:04;;;;;;;84.72;32.85;;;0.10;99.90;;;;;;4414810;28;658318;-68
2021/01/06 04:12:01;;;;;;;87.53;31.70;;;0.10;99.90;;;;;;4392706;28;658448;-68
2021/01/06 04:14:48;;;;;;;83.23;34.90;;;0.10;99.90;;;;;;4381829;28;658141;-68
2021/01/06 04:17:36;;;;;;;75.87;29.60;;;0.20;99.90;;;;;;4390474;28;658036;-68
2021/01/06 04:20:31;;;;;;;83.67;31.07;;;0.10;99.90;;;;;;4409084;28;657509;-68
2021/01/06 04:23:19;;;;;;;81.60;31.27;;;0.10;99.90;;;;;;4373593;28;657349;-66
2021/01/06 04:26:06;;;;;;;78.87;33.77;;;0.10;99.90;;;;;;4409690;28;658439;-68
2021/01/06 04:28:53;;;;;;;82.30;31.83;;;0.10;99.90;;;;;;4415498;28;658952;-68
2021/01/06 04:31:40;;;;;;;82.30;29.93;;;0.10;99.90;;;;;;4394615;28;657594;-68
2021/01/06 04:34:27;;;;;;;87.13;30.38;;;0.20;99.90;;;;;;4408473;28;659214;-68
2021/01/06 04:37:15;;;;;;;80.33;31.43;;;0.10;99.90;;;;;;4390775;28;657588;-67
2021/01/06 04:40:02;;;;;;;78.20;30.17;;;0.10;99.90;;;;;;4415394;28;658396;-68
2021/01/06 04:42:49;;;;;;;81.55;32.20;;;0.10;99.90;;;;;;4381834;28;659152;-67
2021/01/06 04:45:38;;;;;;;73.70;27.83;;;0.10;99.90;;;;;;4412658;28;657480;-68
2021/01/06 04:48:43;;;;;;;86.97;31.27;;;0.10;99.90;;;;;;4391177;28;657582;-68
2021/01/06 04:51:53;;;;;;;73.50;27.60;;;0.10;99.90;;;;;;4354771;28;659003;-68
2021/01/06 04:54:51;;;;;;;84.70;28.63;;;0.10;99.90;;;;;;4369502;28;658805;-67
2021/01/06 04:58:08;;;;;;;88.03;29.77;;;0.20;99.90;;;;;;4357568;28;657209;-66
2021/01/06 05:01:15;;;;;;;90.83;30.00;;;0.20;99.90;;;;;;4349068;28;658130;-68
2021/01/06 05:04:09;;;;;;;77.50;28.67;;;0.20;99.90;;;;;;4371464;28;657710;-68
2021/01/06 05:06:59;;;;;;;78.70;27.37;;;0.20;99.90;;;;;;4363688;28;657694;-68
2021/01/06 05:09:50;;;;;;;83.53;29.97;;;0.20;99.90;;;;;;4374242;28;658362;-68
2021/01/06 05:12:38;;;;;;;81.67;27.57;;;0.20;99.90;;;;;;4361921;28;658760;-68
2021/01/06 05:15:34;;;;;;;73.53;26.53;;;0.30;99.90;;;;;;4378990;28;658762;-68
2021/01/06 05:18:21;;;;;;;78.50;27.33;;;0.20;99.90;;;;;;4340454;28;657439;-68
2021/01/06 05:21:12;;;;;;;75.28;26.88;;;0.20;99.90;;;;;;4397666;28;658139;-68
2021/01/06 05:24:01;;;;;;;87.83;29.47;;;0.20;99.90;;;;;;4349829;28;658008;-67
2021/01/06 05:26:51;;;;;;;83.80;28.00;;;0.20;99.90;;;;;;4389453;28;657499;-66
2021/01/06 05:29:39;;;;;;;86.43;27.60;;;0.20;99.90;;;;;;4379779;28;657862;-66
2021/01/06 05:32:29;;;;;;;85.47;26.40;;;0.20;99.90;;;;;;4397640;28;658678;-68
2021/01/06 05:35:17;;;;;;;76.60;25.80;;;0.20;99.90;;;;;;4363180;28;659150;-68
2021/01/06 05:38:04;;;;;;;71.35;25.50;;;0.10;99.90;;;;;;4377940;28;657934;-66
2021/01/06 05:40:51;;;;;;;74.67;26.33;;;0.20;99.90;;;;;;4401904;28;657295;-68
2021/01/06 05:43:43;;;;;;;84.87;26.53;;;0.20;99.90;;;;;;4381384;28;658891;-68
2021/01/06 05:46:31;;;;;;;83.53;26.60;;;0.20;99.90;;;;;;4378880;28;657614;-68
2021/01/06 05:49:22;;;;;;;79.27;28.13;;;0.20;99.90;;;;;;4383717;28;657638;-65
2021/01/06 05:52:10;;;;;;;79.67;29.53;;;0.30;99.90;;;;;;4378356;28;657850;-68
2021/01/06 05:54:57;;;;;;;89.90;33.50;;;0.20;99.90;;;;;;4391475;28;658092;-68
2021/01/06 05:57:46;;;;;;;100.13;35.57;;;0.20;99.90;;;;;;4378231;28;657661;-68
2021/01/06 06:00:48;;;;;;;108.73;36.13;;;0.20;99.90;;;;;;4383271;28;658599;-68
2021/01/06 06:03:52;;;;;;;103.03;36.10;;;0.20;99.90;;;;;;4350318;28;658513;-68
2021/01/06 06:07:06;;;;;;;94.80;32.97;;;0.20;99.90;;;;;;4354347;28;658468;-67
2021/01/06 06:10:33;;;;;;;85.40;31.03;;;0.20;99.90;;;;;;4369865;28;658518;-68
2021/01/06 06:13:39;;;;;;;89.37;31.07;;;0.30;99.90;;;;;;4347034;28;658514;-68
2021/01/06 06:16:35;;;;;;;80.75;27.90;;;0.20;99.90;;;;;;4346057;28;658215;-68
2021/01/06 06:19:34;;;;;;;91.37;30.70;;;0.20;99.90;;;;;;4374223;28;657924;-68
2021/01/06 06:22:23;;;;;;;141.53;40.27;;;0.20;99.90;;;;;;4348171;28;658367;-68
2021/01/06 06:25:17;;;;;;;168.30;45.58;;;0.20;99.90;;;;;;4369741;28;659356;-68
2021/01/06 06:28:11;;;;;;;180.23;50.47;;;0.30;99.90;;;;;;4356807;28;658755;-66
2021/01/06 06:30:59;;;;;;;165.97;46.40;;;0.30;99.90;;;;;;4367456;28;659267;-68
2021/01/06 06:33:47;;;;;;;128.43;42.83;;;0.30;99.90;;;;;;4372931;28;659834;-68
2021/01/06 06:36:35;;;;;;;132.13;44.22;;;0.30;99.90;;;;;;4371889;28;658716;-65
2021/01/06 06:39:28;;;;;;;99.37;32.83;;;0.20;99.90;;;;;;4395536;28;659611;-68
2021/01/06 06:42:20;;;;;;;70.60;26.60;;;0.20;99.90;;;;;;4353692;28;658356;-67
2021/01/06 06:45:26;;;;;;;66.33;23.90;;;0.10;99.90;;;;;;4370315;28;657836;-68
2021/01/06 06:48:18;;;;;;;52.37;20.73;;;0.00;99.90;;;;;;4397840;28;657424;-65
2021/01/06 06:51:17;;;;;;;52.00;21.13;;;-0.10;99.90;;;;;;4373159;28;658887;-68
2021/01/06 06:54:09;;;;;;;52.78;20.90;;;-0.20;99.90;;;;;;4365841;28;659144;-67
2021/01/06 06:56:57;;;;;;;59.00;19.83;;;-0.20;99.90;;;;;;4372780;28;660016;-68
2021/01/06 06:59:51;;;;;;;67.00;25.67;;;-0.20;99.90;;;;;;4377416;28;658559;-68
2021/01/06 07:02:45;;;;;;;78.00;28.77;;;-0.30;99.90;;;;;;4375512;28;658898;-68
2021/01/06 07:05:35;;;;;;;81.25;30.77;;;-0.40;99.90;;;;;;4369739;28;658960;-68
2021/01/06 07:08:24;;;;;;;96.15;34.30;;;-0.50;99.90;;;;;;4374167;28;660395;-68
2021/01/06 07:11:30;;;;;;;87.27;32.93;;;-0.40;99.90;;;;;;4367856;28;659473;-68
2021/01/06 07:14:21;;;;;;;99.93;35.47;;;-0.50;99.90;;;;;;4366720;28;658607;-68
2021/01/06 07:17:11;;;;;;;89.30;32.03;;;-0.50;99.90;;;;;;4370681;28;658899;-68
2021/01/06 07:19:59;;;;;;;96.63;34.23;;;-0.50;99.90;;;;;;4375610;28;658954;-68
2021/01/06 07:22:48;;;;;;;103.70;38.43;;;-0.60;99.90;;;;;;4375361;28;659263;-68
2021/01/06 07:25:36;;;;;;;109.40;40.80;;;-0.60;99.90;;;;;;4375826;28;659867;-67
2021/01/06 07:28:23;;;;;;;101.93;37.23;;;-0.50;99.90;;;;;;4385586;28;659798;-67
2021/01/06 07:31:11;;;;;;;94.40;33.43;;;-0.50;99.90;;;;;;4364117;28;659942;-67
2021/01/06 07:34:01;;;;;;;89.60;33.07;;;-0.50;99.90;;;;;;4397058;28;658894;-66
2021/01/06 07:37:02;;;;;;;87.73;32.23;;;-0.40;99.90;;;;;;4389908;28;658975;-66
2021/01/06 07:39:49;;;;;;;157.38;52.58;;;-0.40;99.90;;;;;;4377246;28;658745;-67
2021/01/06 07:42:39;;;;;;;204.13;63.23;;;-0.40;99.90;;;;;;4393302;28;660923;-67
2021/01/06 07:45:34;;;;;;;153.10;48.43;;;-0.20;99.90;;;;;;4375150;28;659924;-67
2021/01/06 07:48:52;;;;;;;319.10;88.07;;;-0.20;99.90;;;;;;4350406;28;661038;-67
2021/01/06 07:51:49;;;;;;;641.17;203.87;;;-0.10;99.90;;;;;;4350953;28;660109;-65
2021/01/06 07:54:39;;;;;;;565.27;179.63;;;-0.10;99.90;;;;;;4367248;28;660931;-67
2021/01/06 07:57:38;;;;;;;133.73;50.27;;;0.00;99.90;;;;;;4364578;28;661343;-67
2021/01/06 08:00:28;;;;;;;153.77;54.13;;;0.10;99.90;;;;;;4350410;28;659175;-67
2021/01/06 08:03:25;;;;;;;96.50;36.83;;;0.20;99.90;;;;;;4361768;28;660008;-67
2021/01/06 08:06:12;;;;;;;87.15;34.42;;;0.30;99.90;;;;;;4368346;28;657663;-67
2021/01/06 08:08:59;;;;;;;85.07;35.60;;;0.30;99.90;;;;;;4378146;28;657532;-66
2021/01/06 08:11:47;;;;;;;112.70;48.13;;;0.40;99.90;;;;;;4396934;28;658844;-67
2021/01/06 08:14:34;;;;;;;99.07;42.73;;;0.50;99.90;;;;;;4366755;28;658800;-67
2021/01/06 08:21:00;;;;;;;112.07;45.47;;;0.60;99.90;;;;;;4361869;28;659617;-67
2021/01/06 08:23:58;;;;;;;105.70;43.90;;;0.70;99.90;;;;;;4364904;28;659229;-67
2021/01/06 08:26:48;;;;;;;99.93;41.30;;;0.70;99.90;;;;;;4345579;28;659733;-67
2021/01/06 08:29:36;;;;;;;127.43;53.60;;;0.70;99.90;;;;;;4368133;28;658746;-67
2021/01/06 08:32:23;;;;;;;61.90;27.13;;;0.70;99.90;;;;;;4381065;28;658708;-67
2021/01/06 08:35:18;;;;;;;63.20;27.03;;;0.60;99.90;;;;;;4377421;28;657627;-67
2021/01/06 08:38:06;;;;;;;66.57;27.40;;;0.70;99.90;;;;;;4353022;28;658398;-67
2021/01/06 08:40:53;;;;;;;44.20;19.60;;;0.60;99.90;;;;;;4393507;28;658555;-67
2021/01/06 08:43:40;;;;;;;44.72;19.55;;;0.60;99.90;;;;;;4379521;28;657463;-66
2021/01/06 08:46:28;;;;;;;49.90;21.67;;;0.60;99.90;;;;;;4402128;28;657753;-67
2021/01/06 08:49:23;;;;;;;49.93;21.33;;;0.70;99.90;;;;;;4374544;28;658607;-67
2021/01/06 08:52:25;;;;;;;57.17;26.73;;;0.80;99.90;;;;;;4352591;28;658665;-66
2021/01/06 08:55:19;;;;;;;80.13;32.97;;;0.80;99.90;;;;;;4371294;28;657741;-67
2021/01/06 08:58:13;;;;;;;87.27;34.13;;;0.90;99.90;;;;;;4363109;28;657873;-67
2021/01/06 09:01:00;;;;;;;76.80;31.23;;;0.90;99.90;;;;;;4350807;28;657711;-66
2021/01/06 09:03:58;;;;;;;88.63;33.33;;;1.00;99.90;;;;;;4384195;28;657473;-67
2021/01/06 09:07:30;;;;;;;61.97;25.43;;;1.00;99.90;;;;;;4347746;28;657739;-67
2021/01/06 09:10:19;;;;;;;71.17;30.40;;;1.10;99.90;;;;;;4369522;28;657645;-67
2021/01/06 09:13:07;;;;;;;76.40;30.60;;;1.20;99.90;;;;;;4369123;28;659516;-67
2021/01/06 09:15:56;;;;;;;82.83;31.83;;;1.20;99.90;;;;;;4376451;28;657559;-66
2021/01/06 09:18:45;;;;;;;80.40;33.10;;;1.30;99.90;;;;;;4391495;28;657856;-67
2021/01/06 09:21:32;;;;;;;73.87;30.80;;;1.40;99.90;;;;;;4364473;28;658827;-67
2021/01/06 09:24:20;;;;;;;68.23;30.07;;;1.40;99.90;;;;;;4365308;28;658584;-66
2021/01/06 09:27:13;;;;;;;65.23;26.57;;;1.50;99.90;;;;;;4386901;28;658240;-67
2021/01/06 09:30:00;;;;;;;56.60;22.92;;;1.60;99.90;;;;;;4351050;28;658597;-67
2021/01/06 09:32:47;;;;;;;52.77;25.07;;;1.70;99.90;;;;;;4388320;28;658410;-67
2021/01/06 09:35:34;;;;;;;62.57;23.80;;;1.80;99.90;;;;;;4372185;28;657615;-66
2021/01/06 09:38:27;;;;;;;55.47;22.70;;;1.90;99.90;;;;;;4400506;28;658012;-67
2021/01/06 09:41:21;;;;;;;78.82;29.80;;;2.00;99.90;;;;;;4342440;28;658665;-66
2021/01/06 09:44:10;;;;;;;65.53;29.75;;;2.10;99.90;;;;;;4368614;28;658016;-66
2021/01/06 09:46:58;;;;;;;72.47;31.57;;;2.30;99.90;;;;;;4394041;28;658801;-67
2021/01/06 09:49:46;;;;;;;94.13;38.67;;;2.40;99.90;;;;;;4365957;28;657699;-67
2021/01/06 09:52:35;;;;;;;96.60;43.60;;;2.40;99.90;;;;;;4391838;28;657571;-66
2021/01/06 09:55:24;;;;;;;74.90;33.20;;;2.50;99.90;;;;;;4393326;28;657409;-66
2021/01/06 09:58:13;;;;;;;58.03;25.33;;;2.50;99.90;;;;;;4365396;28;658546;-67
2021/01/06 10:01:11;;;;;;;77.03;35.10;;;2.50;99.90;;;;;;4368262;28;657794;-67
2021/01/06 10:04:01;;;;;;;77.70;30.60;;;2.50;99.90;;;;;;4367880;28;658099;-67
2021/01/06 10:06:54;;;;;;;75.30;28.30;;;2.50;99.90;;;;;;4393708;28;658756;-67
2021/01/06 10:09:43;;;;;;;75.70;30.43;;;2.50;99.90;;;;;;4342437;28;658998;-68
2021/01/06 10:12:39;;;;;;;70.90;28.20;;;2.50;99.90;;;;;;4374320;28;657351;-67
2021/01/06 10:15:38;;;;;;;64.07;27.03;;;2.60;99.90;;;;;;4345141;28;658955;-68
2021/01/06 10:18:35;;;;;;;63.60;28.07;;;2.60;99.90;;;;;;4378429;28;657208;-67
2021/01/06 10:21:25;;;;;;;84.87;34.67;;;2.40;99.90;;;;;;4362194;28;657821;-67
2021/01/06 10:24:47;;;;;;;77.43;33.10;;;2.40;99.90;;;;;;4373568;28;657687;-67
2021/01/06 10:27:36;;;;;;;117.60;40.33;;;2.40;99.90;;;;;;4348765;28;657410;-65
2021/01/06 10:30:23;;;;;;;70.83;30.50;;;2.40;99.90;;;;;;4391496;28;658917;-67
2021/01/06 10:33:17;;;;;;;37.03;16.27;;;2.30;99.90;;;;;;4373827;28;658339;-67
2021/01/06 10:36:24;;;;;;;142.77;60.63;;;2.40;99.90;;;;;;4356916;28;658171;-65
2021/01/06 10:39:19;;;;;;;118.23;49.87;;;2.30;99.90;;;;;;4342658;28;659541;-67
2021/01/06 10:42:07;;;;;;;90.10;37.03;;;2.40;99.90;;;;;;4366541;28;659088;-66
2021/01/06 10:44:55;;;;;;;86.33;35.40;;;2.50;99.90;;;;;;4372306;28;657461;-67
2021/01/06 10:47:47;;;;;;;132.90;55.97;;;2.60;99.90;;;;;;4392736;28;657458;-67
2021/01/06 10:50:43;;;;;;;98.82;40.75;;;2.70;99.90;;;;;;4351655;28;659306;-67
2021/01/06 10:53:31;;;;;;;99.10;39.63;;;2.90;99.90;;;;;;4380967;28;657806;-67
2021/01/06 10:56:18;;;;;;;83.73;35.07;;;2.90;99.90;;;;;;4398242;28;658282;-66
2021/01/06 10:59:05;;;;;;;96.43;39.07;;;3.00;99.90;;;;;;4376392;28;657379;-67
2021/01/06 11:02:08;;;;;;;90.27;35.43;;;3.00;99.90;;;;;;4396320;28;657294;-67
2021/01/06 11:05:06;;;;;;;66.40;28.30;;;3.10;99.90;;;;;;4338170;28;658552;-67
2021/01/06 11:08:23;;;;;;;81.20;33.23;;;3.20;99.90;;;;;;4365632;28;657651;-65
2021/01/06 11:11:29;;;;;;;87.00;36.90;;;3.30;99.90;;;;;;4342310;28;658320;-67
2021/01/06 11:14:34;;;;;;;68.80;30.03;;;3.40;99.90;;;;;;4371932;28;657820;-66
2021/01/06 11:17:27;;;;;;;77.20;29.83;;;3.50;99.90;;;;;;4340460;28;658562;-67
2021/01/06 11:20:32;;;;;;;58.03;25.40;;;3.70;99.90;;;;;;4351604;28;657688;-66
2021/01/06 11:23:47;;;;;;;58.13;24.60;;;3.70;99.90;;;;;;4367519;28;657639;-65
2021/01/06 11:26:48;;;;;;;74.33;30.83;;;3.80;99.90;;;;;;4373258;28;657482;-67
2021/01/06 11:29:57;;;;;;;73.57;31.93;;;3.80;99.90;;;;;;4337853;28;658542;-66
2021/01/06 11:32:44;;;;;;;69.87;30.97;;;3.70;99.90;;;;;;4343655;28;658902;-66
2021/01/06 11:35:32;;;;;;;75.90;31.83;;;3.80;99.90;;;;;;4387020;28;658957;-67
2021/01/06 11:38:48;;;;;;;87.40;36.43;;;3.70;99.90;;;;;;4374761;28;657543;-65
2021/01/06 11:41:59;;;;;;;61.57;26.13;;;3.60;99.90;;;;;;4340433;28;658927;-67
2021/01/06 11:44:47;;;;;;;65.20;29.20;;;3.50;99.90;;;;;;4346930;28;659287;-67
2021/01/06 11:47:35;;;;;;;69.37;30.30;;;3.40;99.90;;;;;;4373741;28;657576;-66
2021/01/06 11:50:34;;;;;;;70.23;33.67;;;3.40;99.90;;;;;;4393650;28;658444;-67
2021/01/06 11:53:24;;;;;;;88.50;37.47;;;3.30;99.90;;;;;;4366263;28;658556;-67
2021/01/06 11:56:16;;;;;;;71.63;28.53;;;3.40;99.90;;;;;;4367524;28;658760;-66
2021/01/06 11:59:16;;;;;;;71.15;29.92;;;3.50;99.90;;;;;;4367826;28;657886;-67
2021/01/06 12:02:06;;;;;;;69.00;28.23;;;3.50;99.90;;;;;;4354398;28;657870;-66
2021/01/06 12:05:11;;;;;;;66.97;25.80;;;3.50;99.90;;;;;;4391910;28;658521;-65
2021/01/06 12:08:15;;;;;;;77.97;30.90;;;3.60;99.90;;;;;;4359069;28;658284;-66
2021/01/06 12:11:05;;;;;;;79.23;33.00;;;3.50;99.90;;;;;;4363783;28;657301;-67
2021/01/06 12:13:57;;;;;;;74.80;30.60;;;3.50;99.90;;;;;;4366259;28;659161;-66
2021/01/06 12:16:47;;;;;;;75.90;29.73;;;3.50;99.90;;;;;;4348026;28;657821;-66
2021/01/06 12:19:37;;;;;;;69.90;27.73;;;3.40;99.90;;;;;;4376446;28;657593;-66
2021/01/06 12:22:24;;;;;;;101.20;39.00;;;3.30;99.90;;;;;;4372712;28;657575;-66
2021/01/06 12:25:43;;;;;;;70.73;26.03;;;3.30;99.90;;;;;;4382538;28;660025;-66
2021/01/06 12:28:33;;;;;;;55.23;22.83;;;3.20;99.90;;;;;;4346144;28;658471;-67
2021/01/06 12:31:21;;;;;;;58.73;23.33;;;3.10;99.90;;;;;;4360353;28;657954;-67
2021/01/06 12:34:14;;;;;;;48.57;20.70;;;3.10;99.90;;;;;;4387159;28;658009;-66
2021/01/06 12:37:23;;;;;;;50.55;20.27;;;3.10;99.90;;;;;;4342245;28;658795;-67
2021/01/06 12:40:21;;;;;;;72.30;28.53;;;2.90;99.90;;;;;;4347077;28;659023;-67
2021/01/06 12:43:18;;;;;;;47.80;18.47;;;2.90;99.90;;;;;;4369428;28;657932;-67
2021/01/06 12:46:12;;;;;;;47.17;18.73;;;2.80;99.90;;;;;;4353277;28;658182;-66
2021/01/06 12:49:25;;;;;;;54.53;22.53;;;2.80;99.90;;;;;;4368303;28;657702;-67
2021/01/06 12:52:24;;;;;;;57.13;22.97;;;3.00;99.90;;;;;;4368464;28;657824;-67
2021/01/06 12:55:21;;;;;;;64.50;23.83;;;2.80;99.90;;;;;;4369052;28;658028;-67
2021/01/06 12:58:10;;;;;;;82.47;30.17;;;2.80;99.90;;;;;;4368204;28;658248;-67
2021/01/06 13:01:02;;;;;;;95.07;34.73;;;2.70;99.90;;;;;;4367304;28;658030;-67
2021/01/06 13:03:52;;;;;;;99.40;36.80;;;2.70;99.90;;;;;;4352810;28;657715;-65
2021/01/06 13:06:44;;;;;;;73.93;27.97;;;2.70;99.90;;;;;;4369694;28;657682;-65
2021/01/06 13:09:34;;;;;;;74.93;29.30;;;2.60;99.90;;;;;;4370722;28;658491;-67
2021/01/06 13:12:27;;;;;;;86.83;33.90;;;2.60;99.90;;;;;;4368419;28;658187;-67
2021/01/06 13:15:21;;;;;;;64.13;26.83;;;2.60;99.90;;;;;;4348519;28;658726;-66
2021/01/06 13:18:10;;;;;;;69.53;30.43;;;2.60;99.90;;;;;;4360555;28;657800;-66
2021/01/06 13:21:00;;;;;;;58.40;26.90;;;2.60;99.90;;;;;;4381381;28;657292;-67
2021/01/06 13:23:50;;;;;;;61.37;25.20;;;2.50;99.90;;;;;;4365658;28;658546;-67
2021/01/06 13:26:39;;;;;;;69.53;27.13;;;2.50;99.90;;;;;;4371027;28;658159;-66
2021/01/06 13:29:30;;;;;;;60.47;25.87;;;2.50;99.90;;;;;;4363571;28;658478;-66
2021/01/06 13:32:34;;;;;;;85.77;36.57;;;2.50;99.90;;;;;;4364508;28;658637;-67
2021/01/06 13:35:24;;;;;;;81.67;32.53;;;2.50;99.90;;;;;;4342109;28;658750;-67
2021/01/06 13:38:14;;;;;;;73.60;30.75;;;2.50;99.90;;;;;;4369211;28;657978;-67
2021/01/06 13:41:14;;;;;;;68.73;29.00;;;2.50;99.90;;;;;;4370281;28;658549;-66
2021/01/06 13:44:04;;;;;;;83.60;34.07;;;2.50;99.90;;;;;;4360484;28;657804;-67
2021/01/06 13:46:53;;;;;;;79.67;30.77;;;2.50;99.90;;;;;;4365914;28;658895;-67
2021/01/06 13:49:42;;;;;;;97.38;35.83;;;2.40;99.90;;;;;;4372672;28;657766;-67
2021/01/06 13:52:33;;;;;;;103.37;37.70;;;2.40;99.90;;;;;;4374992;28;658359;-66
2021/01/06 13:55:34;;;;;;;119.37;41.50;;;2.40;99.90;;;;;;4377232;28;659288;-66
2021/01/06 13:58:25;;;;;;;113.27;42.63;;;2.40;99.90;;;;;;4392031;28;659144;-66
2021/01/06 14:01:15;;;;;;;124.00;43.83;;;2.30;99.90;;;;;;4386606;28;659188;-67
2021/01/06 14:04:03;;;;;;;145.35;55.33;;;2.30;99.90;;;;;;4377585;28;659739;-67
2021/01/06 14:06:54;;;;;;;108.43;41.83;;;2.20;99.90;;;;;;4393897;28;658545;-67
2021/01/06 14:09:57;;;;;;;102.60;41.63;;;2.10;99.90;;;;;;4392564;28;659326;-66
2021/01/06 14:13:04;;;;;;;97.97;40.47;;;2.20;99.90;;;;;;4367472;28;658753;-66
2021/01/06 14:16:17;;;;;;;81.43;33.60;;;2.10;99.90;;;;;;4368599;28;658983;-67
2021/01/06 14:19:45;;;;;;;78.23;33.07;;;2.20;99.90;;;;;;4363767;28;658020;-64
2021/01/06 14:22:39;;;;;;;82.40;33.17;;;2.00;99.90;;;;;;4386506;28;658907;-67
2021/01/06 14:25:54;;;;;;;84.50;33.87;;;1.90;99.90;;;;;;4368186;28;658621;-67
2021/01/06 14:28:43;;;;;;;86.43;37.13;;;1.70;99.90;;;;;;4361360;28;658175;-67
2021/01/06 14:31:33;;;;;;;99.43;40.17;;;1.50;99.90;;;;;;4390780;28;657311;-66
2021/01/06 14:34:23;;;;;;;128.30;46.93;;;1.40;99.90;;;;;;4391464;28;657747;-66